sensor_id;sensor_type;location;lat;lon;timestamp;P1;durP1;ratioP1;P2;durP2;ratioP2
80746;SDS011;75521;50.218;14.322;2024-02-21T00:02:21;5.82;;;2.45;;
80746;SDS011;75521;50.218;14.322;2024-02-21T00:04:47;5.63;;;2.33;;
80746;SDS011;75521;50.218;14.322;2024-02-21T00:07:12;5.97;;;2.00;;
80746;SDS011;75521;50.218;14.322;2024-02-21T00:09:38;9.52;;;2.97;;
80746;SDS011;75521;50.218;14.322;2024-02-21T00:12:03;7.55;;;2.08;;
80746;SDS011;75521;50.218;14.322;2024-02-21T00:14:30;6.68;;;2.30;;
80746;SDS011;75521;50.218;14.322;2024-02-21T00:16:55;10.95;;;3.30;;
80746;SDS011;75521;50.218;14.322;2024-02-21T00:19:21;7.72;;;3.05;;
80746;SDS011;75521;50.218;14.322;2024-02-21T00:21:46;6.03;;;2.40;;
80746;SDS011;75521;50.218;14.322;2024-02-21T00:24:11;8.38;;;2.63;;
80746;SDS011;75521;50.218;14.322;2024-02-21T00:26:37;11.52;;;2.72;;
80746;SDS011;75521;50.218;14.322;2024-02-21T00:29:02;8.50;;;3.08;;
80746;SDS011;75521;50.218;14.322;2024-02-21T00:31:28;5.35;;;2.33;;
80746;SDS011;75521;50.218;14.322;2024-02-21T00:33:53;5.63;;;2.22;;
80746;SDS011;75521;50.218;14.322;2024-02-21T00:36:18;7.10;;;2.50;;
80746;SDS011;75521;50.218;14.322;2024-02-21T00:38:43;8.25;;;2.30;;
80746;SDS011;75521;50.218;14.322;2024-02-21T00:41:09;7.97;;;2.30;;
80746;SDS011;75521;50.218;14.322;2024-02-21T00:43:35;5.82;;;2.08;;
80746;SDS011;75521;50.218;14.322;2024-02-21T00:46:00;6.10;;;3.35;;
80746;SDS011;75521;50.218;14.322;2024-02-21T00:48:25;7.45;;;2.47;;
80746;SDS011;75521;50.218;14.322;2024-02-21T00:50:51;7.38;;;3.05;;
80746;SDS011;75521;50.218;14.322;2024-02-21T00:53:17;5.68;;;2.13;;
80746;SDS011;75521;50.218;14.322;2024-02-21T00:55:42;5.78;;;2.25;;
80746;SDS011;75521;50.218;14.322;2024-02-21T00:58:08;7.55;;;3.03;;
80746;SDS011;75521;50.218;14.322;2024-02-21T01:00:33;6.60;;;2.83;;
80746;SDS011;75521;50.218;14.322;2024-02-21T01:02:59;4.35;;;1.75;;
80746;SDS011;75521;50.218;14.322;2024-02-21T01:05:24;10.32;;;2.83;;
80746;SDS011;75521;50.218;14.322;2024-02-21T01:07:52;5.38;;;2.83;;
80746;SDS011;75521;50.218;14.322;2024-02-21T01:10:17;6.50;;;3.22;;
80746;SDS011;75521;50.218;14.322;2024-02-21T01:12:43;5.32;;;2.28;;
80746;SDS011;75521;50.218;14.322;2024-02-21T01:15:08;7.55;;;2.47;;
80746;SDS011;75521;50.218;14.322;2024-02-21T01:17:34;8.55;;;3.15;;
80746;SDS011;75521;50.218;14.322;2024-02-21T01:19:59;6.28;;;2.33;;
80746;SDS011;75521;50.218;14.322;2024-02-21T01:22:24;11.55;;;2.78;;
80746;SDS011;75521;50.218;14.322;2024-02-21T01:24:50;5.68;;;2.33;;
80746;SDS011;75521;50.218;14.322;2024-02-21T01:27:15;4.60;;;2.45;;
80746;SDS011;75521;50.218;14.322;2024-02-21T01:29:41;6.60;;;1.83;;
80746;SDS011;75521;50.218;14.322;2024-02-21T01:32:06;9.38;;;2.97;;
80746;SDS011;75521;50.218;14.322;2024-02-21T01:34:32;5.10;;;2.28;;
80746;SDS011;75521;50.218;14.322;2024-02-21T01:36:57;10.00;;;2.45;;
80746;SDS011;75521;50.218;14.322;2024-02-21T01:41:49;8.30;;;3.67;;
80746;SDS011;75521;50.218;14.322;2024-02-21T01:44:14;6.55;;;2.70;;
80746;SDS011;75521;50.218;14.322;2024-02-21T01:46:40;7.85;;;2.80;;
80746;SDS011;75521;50.218;14.322;2024-02-21T01:49:05;8.68;;;3.30;;
80746;SDS011;75521;50.218;14.322;2024-02-21T01:51:31;5.47;;;2.38;;
80746;SDS011;75521;50.218;14.322;2024-02-21T01:53:57;8.60;;;2.60;;
80746;SDS011;75521;50.218;14.322;2024-02-21T01:56:23;6.50;;;2.85;;
80746;SDS011;75521;50.218;14.322;2024-02-21T01:58:49;10.63;;;2.75;;
80746;SDS011;75521;50.218;14.322;2024-02-21T02:01:15;8.82;;;2.80;;
80746;SDS011;75521;50.218;14.322;2024-02-21T02:03:42;5.72;;;2.28;;
80746;SDS011;75521;50.218;14.322;2024-02-21T02:06:07;7.00;;;2.22;;
80746;SDS011;75521;50.218;14.322;2024-02-21T02:08:33;10.88;;;2.70;;
80746;SDS011;75521;50.218;14.322;2024-02-21T02:10:59;6.95;;;2.33;;
80746;SDS011;75521;50.218;14.322;2024-02-21T02:13:25;10.18;;;2.55;;
80746;SDS011;75521;50.218;14.322;2024-02-21T02:15:50;5.47;;;2.58;;
80746;SDS011;75521;50.218;14.322;2024-02-21T02:18:17;4.30;;;2.40;;
80746;SDS011;75521;50.218;14.322;2024-02-21T02:20:45;4.85;;;2.00;;
80746;SDS011;75521;50.218;14.322;2024-02-21T02:23:12;6.85;;;2.60;;
80746;SDS011;75521;50.218;14.322;2024-02-21T02:25:43;4.63;;;1.70;;
80746;SDS011;75521;50.218;14.322;2024-02-21T02:28:08;5.43;;;2.80;;
80746;SDS011;75521;50.218;14.322;2024-02-21T02:30:34;5.20;;;2.30;;
80746;SDS011;75521;50.218;14.322;2024-02-21T02:33:03;8.93;;;2.30;;
80746;SDS011;75521;50.218;14.322;2024-02-21T02:35:29;8.68;;;2.80;;
80746;SDS011;75521;50.218;14.322;2024-02-21T02:37:55;8.65;;;2.55;;
80746;SDS011;75521;50.218;14.322;2024-02-21T02:40:20;5.00;;;2.15;;
80746;SDS011;75521;50.218;14.322;2024-02-21T02:42:46;12.82;;;3.13;;
80746;SDS011;75521;50.218;14.322;2024-02-21T02:45:13;7.65;;;2.65;;
80746;SDS011;75521;50.218;14.322;2024-02-21T02:47:40;6.95;;;2.72;;
80746;SDS011;75521;50.218;14.322;2024-02-21T02:50:05;7.10;;;2.58;;
80746;SDS011;75521;50.218;14.322;2024-02-21T02:52:31;6.95;;;2.72;;
80746;SDS011;75521;50.218;14.322;2024-02-21T02:54:57;7.28;;;2.58;;
80746;SDS011;75521;50.218;14.322;2024-02-21T02:57:22;9.95;;;2.63;;
80746;SDS011;75521;50.218;14.322;2024-02-21T02:59:48;7.80;;;2.50;;
80746;SDS011;75521;50.218;14.322;2024-02-21T03:02:14;7.70;;;3.10;;
80746;SDS011;75521;50.218;14.322;2024-02-21T03:04:39;8.45;;;3.17;;
80746;SDS011;75521;50.218;14.322;2024-02-21T03:07:05;6.55;;;2.42;;
80746;SDS011;75521;50.218;14.322;2024-02-21T03:09:31;7.13;;;2.38;;
80746;SDS011;75521;50.218;14.322;2024-02-21T03:11:56;9.82;;;3.35;;
80746;SDS011;75521;50.218;14.322;2024-02-21T03:14:27;8.20;;;2.72;;
80746;SDS011;75521;50.218;14.322;2024-02-21T03:16:53;7.97;;;2.70;;
80746;SDS011;75521;50.218;14.322;2024-02-21T03:19:18;7.32;;;2.60;;
80746;SDS011;75521;50.218;14.322;2024-02-21T03:21:44;7.45;;;2.83;;
80746;SDS011;75521;50.218;14.322;2024-02-21T03:24:09;5.07;;;2.45;;
80746;SDS011;75521;50.218;14.322;2024-02-21T03:26:34;7.40;;;2.40;;
80746;SDS011;75521;50.218;14.322;2024-02-21T03:28:59;6.93;;;2.90;;
80746;SDS011;75521;50.218;14.322;2024-02-21T03:31:25;9.27;;;2.60;;
80746;SDS011;75521;50.218;14.322;2024-02-21T03:33:50;4.88;;;2.63;;
80746;SDS011;75521;50.218;14.322;2024-02-21T03:36:16;11.32;;;2.85;;
80746;SDS011;75521;50.218;14.322;2024-02-21T03:38:41;8.10;;;2.65;;
80746;SDS011;75521;50.218;14.322;2024-02-21T03:41:06;7.25;;;2.45;;
80746;SDS011;75521;50.218;14.322;2024-02-21T03:43:32;7.28;;;2.83;;
80746;SDS011;75521;50.218;14.322;2024-02-21T03:45:57;7.50;;;3.17;;
80746;SDS011;75521;50.218;14.322;2024-02-21T03:48:23;7.63;;;2.97;;
80746;SDS011;75521;50.218;14.322;2024-02-21T03:50:48;10.00;;;3.40;;
80746;SDS011;75521;50.218;14.322;2024-02-21T03:53:13;7.25;;;2.95;;
80746;SDS011;75521;50.218;14.322;2024-02-21T03:55:39;10.93;;;3.00;;
80746;SDS011;75521;50.218;14.322;2024-02-21T03:58:04;6.53;;;2.50;;
80746;SDS011;75521;50.218;14.322;2024-02-21T04:00:29;6.70;;;3.00;;
80746;SDS011;75521;50.218;14.322;2024-02-21T04:02:55;7.30;;;3.05;;
80746;SDS011;75521;50.218;14.322;2024-02-21T04:05:21;5.82;;;2.80;;
80746;SDS011;75521;50.218;14.322;2024-02-21T04:07:46;7.55;;;3.20;;
80746;SDS011;75521;50.218;14.322;2024-02-21T04:10:12;6.55;;;2.88;;
80746;SDS011;75521;50.218;14.322;2024-02-21T04:12:37;5.53;;;2.70;;
80746;SDS011;75521;50.218;14.322;2024-02-21T04:15:03;9.27;;;2.85;;
80746;SDS011;75521;50.218;14.322;2024-02-21T04:17:29;6.60;;;2.72;;
80746;SDS011;75521;50.218;14.322;2024-02-21T04:20:01;3.78;;;2.35;;
80746;SDS011;75521;50.218;14.322;2024-02-21T04:22:33;5.45;;;3.03;;
80746;SDS011;75521;50.218;14.322;2024-02-21T04:24:59;5.90;;;2.33;;
80746;SDS011;75521;50.218;14.322;2024-02-21T04:27:25;12.18;;;2.90;;
80746;SDS011;75521;50.218;14.322;2024-02-21T04:29:51;5.90;;;2.60;;
80746;SDS011;75521;50.218;14.322;2024-02-21T04:34:43;5.90;;;2.72;;
80746;SDS011;75521;50.218;14.322;2024-02-21T04:37:08;8.75;;;3.15;;
80746;SDS011;75521;50.218;14.322;2024-02-21T04:39:33;5.55;;;2.67;;
80746;SDS011;75521;50.218;14.322;2024-02-21T04:41:59;8.75;;;3.60;;
80746;SDS011;75521;50.218;14.322;2024-02-21T04:44:24;12.40;;;3.33;;
80746;SDS011;75521;50.218;14.322;2024-02-21T04:46:49;6.15;;;2.70;;
80746;SDS011;75521;50.218;14.322;2024-02-21T04:49:15;5.07;;;2.22;;
80746;SDS011;75521;50.218;14.322;2024-02-21T04:51:40;8.07;;;3.55;;
80746;SDS011;75521;50.218;14.322;2024-02-21T04:54:06;9.98;;;3.35;;
80746;SDS011;75521;50.218;14.322;2024-02-21T04:56:31;6.60;;;3.10;;
80746;SDS011;75521;50.218;14.322;2024-02-21T04:58:56;9.82;;;3.08;;
80746;SDS011;75521;50.218;14.322;2024-02-21T05:01:22;11.70;;;4.13;;
80746;SDS011;75521;50.218;14.322;2024-02-21T05:03:47;8.00;;;3.35;;
80746;SDS011;75521;50.218;14.322;2024-02-21T05:06:12;8.65;;;3.50;;
80746;SDS011;75521;50.218;14.322;2024-02-21T05:08:38;7.72;;;2.50;;
80746;SDS011;75521;50.218;14.322;2024-02-21T05:11:03;8.35;;;3.53;;
80746;SDS011;75521;50.218;14.322;2024-02-21T05:13:28;10.32;;;2.75;;
80746;SDS011;75521;50.218;14.322;2024-02-21T05:15:54;7.03;;;3.10;;
80746;SDS011;75521;50.218;14.322;2024-02-21T05:18:19;8.35;;;2.78;;
80746;SDS011;75521;50.218;14.322;2024-02-21T05:20:45;8.52;;;2.50;;
80746;SDS011;75521;50.218;14.322;2024-02-21T05:23:11;9.15;;;2.90;;
80746;SDS011;75521;50.218;14.322;2024-02-21T05:25:37;10.95;;;3.40;;
80746;SDS011;75521;50.218;14.322;2024-02-21T05:28:02;8.10;;;2.50;;
80746;SDS011;75521;50.218;14.322;2024-02-21T05:30:28;8.25;;;3.08;;
80746;SDS011;75521;50.218;14.322;2024-02-21T05:32:54;5.10;;;2.95;;
80746;SDS011;75521;50.218;14.322;2024-02-21T05:35:24;5.60;;;2.92;;
80746;SDS011;75521;50.218;14.322;2024-02-21T05:37:50;8.32;;;3.85;;
80746;SDS011;75521;50.218;14.322;2024-02-21T05:40:17;13.23;;;3.67;;
80746;SDS011;75521;50.218;14.322;2024-02-21T05:42:43;9.07;;;3.15;;
80746;SDS011;75521;50.218;14.322;2024-02-21T05:45:08;7.63;;;2.97;;
80746;SDS011;75521;50.218;14.322;2024-02-21T05:47:34;9.85;;;3.30;;
80746;SDS011;75521;50.218;14.322;2024-02-21T05:50:01;3.83;;;2.30;;
80746;SDS011;75521;50.218;14.322;2024-02-21T05:52:26;7.55;;;3.03;;
80746;SDS011;75521;50.218;14.322;2024-02-21T05:54:51;9.52;;;3.28;;
80746;SDS011;75521;50.218;14.322;2024-02-21T05:57:17;10.80;;;3.38;;
80746;SDS011;75521;50.218;14.322;2024-02-21T05:59:43;12.15;;;3.40;;
80746;SDS011;75521;50.218;14.322;2024-02-21T06:02:09;8.95;;;3.10;;
80746;SDS011;75521;50.218;14.322;2024-02-21T06:04:34;5.97;;;2.90;;
80746;SDS011;75521;50.218;14.322;2024-02-21T06:07:00;9.18;;;3.15;;
80746;SDS011;75521;50.218;14.322;2024-02-21T06:09:26;8.30;;;3.35;;
80746;SDS011;75521;50.218;14.322;2024-02-21T06:11:51;9.82;;;3.38;;
80746;SDS011;75521;50.218;14.322;2024-02-21T06:14:17;7.78;;;2.85;;
80746;SDS011;75521;50.218;14.322;2024-02-21T06:16:43;13.40;;;3.42;;
80746;SDS011;75521;50.218;14.322;2024-02-21T06:19:09;7.07;;;3.45;;
80746;SDS011;75521;50.218;14.322;2024-02-21T06:21:34;8.40;;;3.45;;
80746;SDS011;75521;50.218;14.322;2024-02-21T06:23:59;7.63;;;2.88;;
80746;SDS011;75521;50.218;14.322;2024-02-21T06:26:25;7.05;;;2.88;;
80746;SDS011;75521;50.218;14.322;2024-02-21T06:28:50;6.45;;;3.88;;
80746;SDS011;75521;50.218;14.322;2024-02-21T06:31:15;8.02;;;2.83;;
80746;SDS011;75521;50.218;14.322;2024-02-21T06:33:41;7.70;;;3.10;;
80746;SDS011;75521;50.218;14.322;2024-02-21T06:36:06;12.70;;;3.38;;
80746;SDS011;75521;50.218;14.322;2024-02-21T06:38:32;8.27;;;3.72;;
80746;SDS011;75521;50.218;14.322;2024-02-21T06:40:58;9.98;;;2.95;;
80746;SDS011;75521;50.218;14.322;2024-02-21T06:45:50;8.93;;;3.08;;
80746;SDS011;75521;50.218;14.322;2024-02-21T06:48:16;6.05;;;2.85;;
80746;SDS011;75521;50.218;14.322;2024-02-21T06:50:43;5.82;;;3.35;;
80746;SDS011;75521;50.218;14.322;2024-02-21T06:53:09;8.93;;;3.65;;
80746;SDS011;75521;50.218;14.322;2024-02-21T06:55:34;11.75;;;3.65;;
80746;SDS011;75521;50.218;14.322;2024-02-21T06:58:00;9.10;;;3.20;;
80746;SDS011;75521;50.218;14.322;2024-02-21T07:00:27;7.60;;;2.85;;
80746;SDS011;75521;50.218;14.322;2024-02-21T07:02:55;7.95;;;3.30;;
80746;SDS011;75521;50.218;14.322;2024-02-21T07:05:21;6.65;;;2.88;;
80746;SDS011;75521;50.218;14.322;2024-02-21T07:07:47;8.23;;;2.97;;
80746;SDS011;75521;50.218;14.322;2024-02-21T07:10:12;8.57;;;3.55;;
80746;SDS011;75521;50.218;14.322;2024-02-21T07:12:38;7.40;;;2.97;;
80746;SDS011;75521;50.218;14.322;2024-02-21T07:15:07;5.45;;;2.97;;
80746;SDS011;75521;50.218;14.322;2024-02-21T07:17:32;9.18;;;3.17;;
80746;SDS011;75521;50.218;14.322;2024-02-21T07:19:58;8.82;;;2.97;;
80746;SDS011;75521;50.218;14.322;2024-02-21T07:22:24;12.40;;;3.40;;
80746;SDS011;75521;50.218;14.322;2024-02-21T07:24:49;7.93;;;3.03;;
80746;SDS011;75521;50.218;14.322;2024-02-21T07:27:15;7.35;;;3.83;;
80746;SDS011;75521;50.218;14.322;2024-02-21T07:29:41;9.95;;;3.22;;
80746;SDS011;75521;50.218;14.322;2024-02-21T07:32:06;8.52;;;2.92;;
80746;SDS011;75521;50.218;14.322;2024-02-21T07:34:31;8.85;;;2.75;;
80746;SDS011;75521;50.218;14.322;2024-02-21T07:36:57;10.95;;;4.55;;
80746;SDS011;75521;50.218;14.322;2024-02-21T07:39:22;4.15;;;2.53;;
80746;SDS011;75521;50.218;14.322;2024-02-21T07:41:48;7.00;;;3.00;;
80746;SDS011;75521;50.218;14.322;2024-02-21T07:44:14;9.10;;;2.83;;
80746;SDS011;75521;50.218;14.322;2024-02-21T07:46:40;8.55;;;2.90;;
80746;SDS011;75521;50.218;14.322;2024-02-21T07:49:05;8.68;;;3.08;;
80746;SDS011;75521;50.218;14.322;2024-02-21T07:51:31;9.45;;;3.22;;
80746;SDS011;75521;50.218;14.322;2024-02-21T07:53:56;10.15;;;3.38;;
80746;SDS011;75521;50.218;14.322;2024-02-21T07:56:21;6.85;;;2.95;;
80746;SDS011;75521;50.218;14.322;2024-02-21T07:58:47;6.85;;;3.20;;
80746;SDS011;75521;50.218;14.322;2024-02-21T08:01:17;6.63;;;2.72;;
80746;SDS011;75521;50.218;14.322;2024-02-21T08:03:45;8.48;;;3.15;;
80746;SDS011;75521;50.218;14.322;2024-02-21T08:06:11;13.90;;;3.35;;
80746;SDS011;75521;50.218;14.322;2024-02-21T08:08:38;7.60;;;3.17;;
80746;SDS011;75521;50.218;14.322;2024-02-21T08:11:03;7.80;;;3.22;;
80746;SDS011;75521;50.218;14.322;2024-02-21T08:13:29;6.63;;;3.30;;
80746;SDS011;75521;50.218;14.322;2024-02-21T08:15:54;12.70;;;3.97;;
80746;SDS011;75521;50.218;14.322;2024-02-21T08:18:19;8.77;;;3.50;;
80746;SDS011;75521;50.218;14.322;2024-02-21T08:20:45;8.35;;;2.95;;
80746;SDS011;75521;50.218;14.322;2024-02-21T08:23:10;9.70;;;3.40;;
80746;SDS011;75521;50.218;14.322;2024-02-21T08:25:36;8.65;;;3.58;;
80746;SDS011;75521;50.218;14.322;2024-02-21T08:28:01;12.00;;;4.97;;
80746;SDS011;75521;50.218;14.322;2024-02-21T08:30:27;9.63;;;3.85;;
80746;SDS011;75521;50.218;14.322;2024-02-21T08:32:52;23.27;;;10.15;;
80746;SDS011;75521;50.218;14.322;2024-02-21T08:35:19;19.90;;;8.52;;
80746;SDS011;75521;50.218;14.322;2024-02-21T08:37:47;14.55;;;5.70;;
80746;SDS011;75521;50.218;14.322;2024-02-21T08:40:13;12.65;;;6.07;;
80746;SDS011;75521;50.218;14.322;2024-02-21T08:42:38;8.82;;;3.90;;
80746;SDS011;75521;50.218;14.322;2024-02-21T08:45:04;10.65;;;4.20;;
80746;SDS011;75521;50.218;14.322;2024-02-21T08:47:30;16.33;;;8.93;;
80746;SDS011;75521;50.218;14.322;2024-02-21T08:49:55;9.85;;;5.55;;
80746;SDS011;75521;50.218;14.322;2024-02-21T08:52:20;12.65;;;5.65;;
80746;SDS011;75521;50.218;14.322;2024-02-21T08:54:46;16.75;;;7.57;;
80746;SDS011;75521;50.218;14.322;2024-02-21T08:57:11;15.82;;;11.40;;
80746;SDS011;75521;50.218;14.322;2024-02-21T08:59:38;20.67;;;13.93;;
80746;SDS011;75521;50.218;14.322;2024-02-21T09:02:04;11.40;;;6.88;;
80746;SDS011;75521;50.218;14.322;2024-02-21T09:04:29;7.15;;;4.15;;
80746;SDS011;75521;50.218;14.322;2024-02-21T09:06:56;12.18;;;5.28;;
80746;SDS011;75521;50.218;14.322;2024-02-21T09:09:21;33.55;;;13.00;;
80746;SDS011;75521;50.218;14.322;2024-02-21T09:11:46;31.30;;;15.30;;
80746;SDS011;75521;50.218;14.322;2024-02-21T09:14:12;46.55;;;19.90;;
80746;SDS011;75521;50.218;14.322;2024-02-21T09:16:37;44.20;;;20.05;;
80746;SDS011;75521;50.218;14.322;2024-02-21T09:19:02;19.83;;;9.73;;
80746;SDS011;75521;50.218;14.322;2024-02-21T09:21:28;21.40;;;10.13;;
80746;SDS011;75521;50.218;14.322;2024-02-21T09:23:53;31.00;;;15.30;;
80746;SDS011;75521;50.218;14.322;2024-02-21T09:26:19;51.00;;;16.55;;
80746;SDS011;75521;50.218;14.322;2024-02-21T09:28:44;15.65;;;7.82;;
80746;SDS011;75521;50.218;14.322;2024-02-21T09:31:10;25.52;;;13.90;;
80746;SDS011;75521;50.218;14.322;2024-02-21T09:33:35;39.40;;;20.55;;
80746;SDS011;75521;50.218;14.322;2024-02-21T09:36:02;28.15;;;14.80;;
80746;SDS011;75521;50.218;14.322;2024-02-21T09:38:27;16.95;;;8.27;;
80746;SDS011;75521;50.218;14.322;2024-02-21T09:40:59;22.98;;;12.75;;
80746;SDS011;75521;50.218;14.322;2024-02-21T09:43:33;34.72;;;18.45;;
80746;SDS011;75521;50.218;14.322;2024-02-21T09:45:59;11.77;;;6.40;;
80746;SDS011;75521;50.218;14.322;2024-02-21T09:51:10;34.90;;;15.32;;
80746;SDS011;75521;50.218;14.322;2024-02-21T09:53:38;33.28;;;19.10;;
80746;SDS011;75521;50.218;14.322;2024-02-21T09:56:07;18.75;;;11.02;;
80746;SDS011;75521;50.218;14.322;2024-02-21T09:58:33;17.02;;;8.70;;
80746;SDS011;75521;50.218;14.322;2024-02-21T10:00:59;17.02;;;8.73;;
80746;SDS011;75521;50.218;14.322;2024-02-21T10:03:25;17.70;;;10.27;;
80746;SDS011;75521;50.218;14.322;2024-02-21T10:05:50;10.05;;;6.55;;
80746;SDS011;75521;50.218;14.322;2024-02-21T10:08:16;11.57;;;5.78;;
80746;SDS011;75521;50.218;14.322;2024-02-21T10:10:43;15.85;;;10.32;;
80746;SDS011;75521;50.218;14.322;2024-02-21T10:13:09;14.38;;;6.80;;
80746;SDS011;75521;50.218;14.322;2024-02-21T10:15:36;12.88;;;8.40;;
80746;SDS011;75521;50.218;14.322;2024-02-21T10:18:01;11.75;;;6.88;;
80746;SDS011;75521;50.218;14.322;2024-02-21T10:20:28;12.18;;;5.90;;
80746;SDS011;75521;50.218;14.322;2024-02-21T10:23:01;8.00;;;2.60;;
80746;SDS011;75521;50.218;14.322;2024-02-21T10:25:33;8.07;;;3.55;;
80746;SDS011;75521;50.218;14.322;2024-02-21T10:30:24;12.93;;;6.00;;
80746;SDS011;75521;50.218;14.322;2024-02-21T10:35:25;8.63;;;3.15;;
80746;SDS011;75521;50.218;14.322;2024-02-21T10:37:52;9.55;;;3.60;;
80746;SDS011;75521;50.218;14.322;2024-02-21T10:40:21;7.78;;;3.65;;
80746;SDS011;75521;50.218;14.322;2024-02-21T10:42:51;6.47;;;2.88;;
80746;SDS011;75521;50.218;14.322;2024-02-21T10:45:21;6.80;;;2.97;;
80746;SDS011;75521;50.218;14.322;2024-02-21T10:47:48;7.30;;;3.25;;
80746;SDS011;75521;50.218;14.322;2024-02-21T10:50:20;7.60;;;3.78;;
80746;SDS011;75521;50.218;14.322;2024-02-21T10:53:01;13.27;;;5.97;;
80746;SDS011;75521;50.218;14.322;2024-02-21T10:55:41;35.40;;;18.95;;
80746;SDS011;75521;50.218;14.322;2024-02-21T10:58:12;10.15;;;6.82;;
80746;SDS011;75521;50.218;14.322;2024-02-21T11:00:39;9.27;;;4.55;;
80746;SDS011;75521;50.218;14.322;2024-02-21T11:03:05;7.15;;;4.65;;
80746;SDS011;75521;50.218;14.322;2024-02-21T11:05:31;8.18;;;5.18;;
80746;SDS011;75521;50.218;14.322;2024-02-21T11:07:58;8.40;;;4.38;;
80746;SDS011;75521;50.218;14.322;2024-02-21T11:10:23;14.30;;;5.65;;
80746;SDS011;75521;50.218;14.322;2024-02-21T11:12:52;9.45;;;3.85;;
80746;SDS011;75521;50.218;14.322;2024-02-21T11:15:32;5.90;;;2.60;;
80746;SDS011;75521;50.218;14.322;2024-02-21T11:17:57;5.53;;;2.67;;
80746;SDS011;75521;50.218;14.322;2024-02-21T11:20:31;6.68;;;2.90;;
80746;SDS011;75521;50.218;14.322;2024-02-21T11:23:00;6.32;;;3.72;;
80746;SDS011;75521;50.218;14.322;2024-02-21T11:25:26;7.05;;;3.78;;
80746;SDS011;75521;50.218;14.322;2024-02-21T11:27:58;9.27;;;3.53;;
80746;SDS011;75521;50.218;14.322;2024-02-21T11:30:31;28.38;;;10.50;;
80746;SDS011;75521;50.218;14.322;2024-02-21T11:33:02;27.35;;;12.88;;
80746;SDS011;75521;50.218;14.322;2024-02-21T11:35:35;7.75;;;5.35;;
80746;SDS011;75521;50.218;14.322;2024-02-21T11:38:10;11.10;;;4.15;;
80746;SDS011;75521;50.218;14.322;2024-02-21T11:40:39;6.68;;;3.20;;
80746;SDS011;75521;50.218;14.322;2024-02-21T11:43:06;9.38;;;4.15;;
80746;SDS011;75521;50.218;14.322;2024-02-21T11:45:32;8.07;;;2.80;;
80746;SDS011;75521;50.218;14.322;2024-02-21T11:48:00;9.90;;;4.38;;
80746;SDS011;75521;50.218;14.322;2024-02-21T11:50:28;70.80;;;22.98;;
80746;SDS011;75521;50.218;14.322;2024-02-21T11:52:54;46.42;;;17.20;;
80746;SDS011;75521;50.218;14.322;2024-02-21T11:55:20;42.05;;;18.80;;
80746;SDS011;75521;50.218;14.322;2024-02-21T11:57:47;35.95;;;16.27;;
80746;SDS011;75521;50.218;14.322;2024-02-21T12:00:16;14.75;;;7.45;;
80746;SDS011;75521;50.218;14.322;2024-02-21T12:02:45;12.40;;;6.38;;
80746;SDS011;75521;50.218;14.322;2024-02-21T12:05:10;10.10;;;5.05;;
80746;SDS011;75521;50.218;14.322;2024-02-21T12:07:36;9.50;;;2.45;;
80746;SDS011;75521;50.218;14.322;2024-02-21T12:10:08;15.60;;;8.18;;
80746;SDS011;75521;50.218;14.322;2024-02-21T12:12:35;9.88;;;4.05;;
80746;SDS011;75521;50.218;14.322;2024-02-21T12:15:03;12.18;;;5.35;;
80746;SDS011;75521;50.218;14.322;2024-02-21T12:17:29;12.80;;;4.53;;
80746;SDS011;75521;50.218;14.322;2024-02-21T12:19:55;12.50;;;7.00;;
80746;SDS011;75521;50.218;14.322;2024-02-21T12:24:47;16.27;;;6.83;;
80746;SDS011;75521;50.218;14.322;2024-02-21T12:27:13;8.82;;;3.50;;
80746;SDS011;75521;50.218;14.322;2024-02-21T12:29:39;14.70;;;7.82;;
80746;SDS011;75521;50.218;14.322;2024-02-21T12:32:04;6.95;;;3.85;;
80746;SDS011;75521;50.218;14.322;2024-02-21T12:34:30;10.60;;;4.50;;
80746;SDS011;75521;50.218;14.322;2024-02-21T12:36:58;13.00;;;6.75;;
80746;SDS011;75521;50.218;14.322;2024-02-21T12:39:24;8.00;;;3.83;;
80746;SDS011;75521;50.218;14.322;2024-02-21T12:41:49;8.13;;;4.30;;
80746;SDS011;75521;50.218;14.322;2024-02-21T12:44:15;6.68;;;4.25;;
80746;SDS011;75521;50.218;14.322;2024-02-21T12:46:42;23.13;;;12.23;;
80746;SDS011;75521;50.218;14.322;2024-02-21T12:49:07;67.53;;;33.20;;
80746;SDS011;75521;50.218;14.322;2024-02-21T12:51:33;14.20;;;7.72;;
80746;SDS011;75521;50.218;14.322;2024-02-21T12:53:59;16.67;;;7.93;;
80746;SDS011;75521;50.218;14.322;2024-02-21T12:56:25;38.60;;;16.40;;
80746;SDS011;75521;50.218;14.322;2024-02-21T12:58:54;13.85;;;6.88;;
80746;SDS011;75521;50.218;14.322;2024-02-21T13:01:20;18.13;;;9.85;;
80746;SDS011;75521;50.218;14.322;2024-02-21T13:03:46;9.25;;;4.63;;
80746;SDS011;75521;50.218;14.322;2024-02-21T13:06:11;13.75;;;7.03;;
80746;SDS011;75521;50.218;14.322;2024-02-21T13:08:37;12.05;;;5.10;;
80746;SDS011;75521;50.218;14.322;2024-02-21T13:11:03;11.00;;;5.40;;
80746;SDS011;75521;50.218;14.322;2024-02-21T13:13:29;27.65;;;12.07;;
80746;SDS011;75521;50.218;14.322;2024-02-21T13:15:54;21.88;;;10.07;;
80746;SDS011;75521;50.218;14.322;2024-02-21T13:18:20;26.50;;;13.88;;
80746;SDS011;75521;50.218;14.322;2024-02-21T13:20:45;14.63;;;6.13;;
80746;SDS011;75521;50.218;14.322;2024-02-21T13:23:10;9.75;;;5.22;;
80746;SDS011;75521;50.218;14.322;2024-02-21T13:25:36;18.55;;;9.10;;
80746;SDS011;75521;50.218;14.322;2024-02-21T13:28:01;12.57;;;5.47;;
80746;SDS011;75521;50.218;14.322;2024-02-21T13:30:28;21.85;;;11.63;;
80746;SDS011;75521;50.218;14.322;2024-02-21T13:32:53;10.35;;;4.82;;
80746;SDS011;75521;50.218;14.322;2024-02-21T13:35:19;6.05;;;3.55;;
80746;SDS011;75521;50.218;14.322;2024-02-21T13:37:45;20.75;;;11.52;;
80746;SDS011;75521;50.218;14.322;2024-02-21T13:40:11;13.13;;;6.60;;
80746;SDS011;75521;50.218;14.322;2024-02-21T13:42:38;11.45;;;4.10;;
80746;SDS011;75521;50.218;14.322;2024-02-21T13:45:04;12.45;;;6.75;;
80746;SDS011;75521;50.218;14.322;2024-02-21T13:47:31;14.13;;;7.40;;
80746;SDS011;75521;50.218;14.322;2024-02-21T13:50:01;28.92;;;14.35;;
80746;SDS011;75521;50.218;14.322;2024-02-21T13:52:29;34.65;;;19.92;;
80746;SDS011;75521;50.218;14.322;2024-02-21T13:54:54;82.55;;;44.53;;
80746;SDS011;75521;50.218;14.322;2024-02-21T13:57:20;22.17;;;11.35;;
80746;SDS011;75521;50.218;14.322;2024-02-21T13:59:45;28.95;;;18.27;;
80746;SDS011;75521;50.218;14.322;2024-02-21T14:02:11;15.05;;;8.88;;
80746;SDS011;75521;50.218;14.322;2024-02-21T14:04:37;9.45;;;7.85;;
80746;SDS011;75521;50.218;14.322;2024-02-21T14:07:02;11.65;;;8.32;;
80746;SDS011;75521;50.218;14.322;2024-02-21T14:09:27;12.10;;;7.30;;
80746;SDS011;75521;50.218;14.322;2024-02-21T14:11:55;15.82;;;10.20;;
80746;SDS011;75521;50.218;14.322;2024-02-21T14:14:21;17.77;;;13.48;;
80746;SDS011;75521;50.218;14.322;2024-02-21T14:16:46;15.63;;;10.93;;
80746;SDS011;75521;50.218;14.322;2024-02-21T14:21:38;7.03;;;3.35;;
80746;SDS011;75521;50.218;14.322;2024-02-21T14:24:04;6.43;;;2.78;;
80746;SDS011;75521;50.218;14.322;2024-02-21T14:26:30;14.70;;;9.38;;
80746;SDS011;75521;50.218;14.322;2024-02-21T14:28:56;18.17;;;13.23;;
80746;SDS011;75521;50.218;14.322;2024-02-21T14:31:22;31.73;;;15.82;;
80746;SDS011;75521;50.218;14.322;2024-02-21T14:33:47;21.33;;;11.25;;
80746;SDS011;75521;50.218;14.322;2024-02-21T14:36:13;31.40;;;17.55;;
80746;SDS011;75521;50.218;14.322;2024-02-21T14:38:40;15.50;;;8.25;;
80746;SDS011;75521;50.218;14.322;2024-02-21T14:41:06;17.63;;;8.30;;
80746;SDS011;75521;50.218;14.322;2024-02-21T14:43:32;10.88;;;6.97;;